Time;durP1;ratioP1;P1;durP2;ratioP2;P2;SDS_P1;SDS_P2;PMS_P1;PMS_P2;Temp;Humidity;BMP_temperature;BMP_pressure;BME280_temperature;BME280_humidity;BME280_pressure;Samples;Min_cycle;Max_cycle;Signal;HPM_P1;HPM_P2
2021/07/01 05:31:56;;;;;;;9.85;2.70;;;;;;;;;;4977908;28;20054;-67
2021/07/01 05:34:22;;;;;;;11.73;3.00;;;;;;;;;;4981429;28;20653;-60
2021/07/01 05:36:48;;;;;;;10.23;3.10;;;;;;;;;;4984029;28;20023;-58
2021/07/01 05:39:15;;;;;;;9.63;2.72;;;;;;;;;;4982981;28;20405;-67
2021/07/01 05:41:41;;;;;;;8.30;2.30;;;;;;;;;;4983383;28;20038;-58
2021/07/01 05:44:07;;;;;;;10.57;2.80;;;;;;;;;;4978141;28;20027;-63
2021/07/01 05:46:33;;;;;;;11.02;3.40;;;;;;;;;;4973362;28;20027;-59
2021/07/01 05:48:59;;;;;;;11.75;3.05;;;;;;;;;;4972392;28;20039;-68
2021/07/01 05:51:27;;;;;;;7.15;2.58;;;;;;;;;;4964194;28;20123;-63
2021/07/01 05:56:36;;;;;;;10.35;3.20;;;;;;;;;;4978723;28;20121;-57
2021/07/01 05:59:03;;;;;;;14.98;7.97;;;;;;;;;;4989411;28;20026;-59
2021/07/01 06:01:29;;;;;;;11.30;3.08;;;;;;;;;;4992417;28;20022;-57
2021/07/01 06:03:56;;;;;;;7.95;2.58;;;;;;;;;;4992287;28;20030;-59
2021/07/01 06:06:23;;;;;;;11.70;2.83;;;;;;;;;;4992625;28;20038;-60
2021/07/01 06:08:50;;;;;;;6.32;2.58;;;;;;;;;;4983882;28;20035;-59
2021/07/01 06:11:16;;;;;;;12.18;3.58;;;;;;;;;;4971738;28;20085;-58
2021/07/01 06:13:43;;;;;;;10.32;3.08;;;;;;;;;;4971274;28;20612;-57
2021/07/01 06:16:13;;;;;;;9.77;2.88;;;;;;;;;;4971517;28;20023;-63
2021/07/01 06:18:42;;;;;;;12.50;2.90;;;;;;;;;;4971474;28;20027;-63
2021/07/01 06:21:09;;;;;;;15.60;3.15;;;;;;;;;;4971418;28;20027;-59
2021/07/01 06:23:39;;;;;;;14.25;3.38;;;;;;;;;;4971273;28;20061;-60
2021/07/01 06:26:05;;;;;;;12.70;3.78;;;;;;;;;;4968758;28;20156;-63
2021/07/01 06:28:35;;;;;;;10.75;3.25;;;;;;;;;;4970934;28;20419;-66
2021/07/01 06:31:01;;;;;;;18.35;4.10;;;;;;;;;;4966472;28;20566;-58
2021/07/01 06:33:27;;;;;;;7.68;2.83;;;;;;;;;;4972242;28;20892;-58
2021/07/01 06:35:55;;;;;;;11.70;3.33;;;;;;;;;;4972066;28;20506;-59
2021/07/01 06:38:23;;;;;;;9.63;3.33;;;;;;;;;;4972294;28;20034;-62
2021/07/01 06:40:50;;;;;;;12.07;3.03;;;;;;;;;;4972368;28;20019;-60
2021/07/01 06:43:20;;;;;;;9.60;3.30;;;;;;;;;;4972014;28;20403;-58
2021/07/01 06:45:46;;;;;;;9.43;2.85;;;;;;;;;;4972300;28;20034;-64
2021/07/01 06:48:14;;;;;;;9.13;2.65;;;;;;;;;;4972200;28;20043;-57
2021/07/01 06:50:41;;;;;;;8.25;3.60;;;;;;;;;;4972036;28;20058;-58
2021/07/01 06:53:08;;;;;;;6.72;2.60;;;;;;;;;;4971913;28;20062;-64
2021/07/01 06:55:35;;;;;;;12.60;2.60;;;;;;;;;;4971881;28;20086;-65
2021/07/01 06:58:01;;;;;;;11.82;3.17;;;;;;;;;;4971672;28;20751;-58
2021/07/01 07:00:27;;;;;;;10.90;3.20;;;;;;;;;;4971477;28;20050;-60
2021/07/01 07:02:53;;;;;;;8.27;3.00;;;;;;;;;;4954319;28;20049;-64
2021/07/01 07:05:19;;;;;;;8.27;2.78;;;;;;;;;;4971832;28;20030;-58
2021/07/01 07:07:47;;;;;;;8.30;2.40;;;;;;;;;;4971552;28;20032;-58
2021/07/01 07:10:13;;;;;;;8.20;2.80;;;;;;;;;;4971675;28;20042;-57
2021/07/01 07:12:46;;;;;;;15.05;3.65;;;;;;;;;;4971664;28;20027;-62
2021/07/01 07:15:14;;;;;;;7.80;2.53;;;;;;;;;;4971294;28;20031;-62
2021/07/01 07:17:41;;;;;;;13.15;3.10;;;;;;;;;;4971755;28;20027;-61
2021/07/01 07:20:08;;;;;;;13.05;3.10;;;;;;;;;;4971721;28;20027;-62
2021/07/01 07:22:41;;;;;;;11.18;3.63;;;;;;;;;;4971992;28;20039;-59
2021/07/01 07:25:08;;;;;;;12.35;2.85;;;;;;;;;;4954580;28;20090;-63
2021/07/01 07:27:37;;;;;;;7.80;2.97;;;;;;;;;;4972050;28;20190;-65
2021/07/01 07:30:05;;;;;;;7.65;3.10;;;;;;;;;;4971221;28;20450;-58
2021/07/01 07:32:31;;;;;;;16.35;3.65;;;;;;;;;;4971925;28;20094;-58
2021/07/01 07:34:57;;;;;;;9.00;3.15;;;;;;;;;;4971503;28;20031;-64
2021/07/01 07:37:23;;;;;;;11.13;2.60;;;;;;;;;;4970375;28;20077;-59
2021/07/01 07:39:50;;;;;;;10.90;3.30;;;;;;;;;;4953628;28;20142;-66
2021/07/01 07:42:17;;;;;;;13.70;3.05;;;;;;;;;;4956216;28;20363;-63
2021/07/01 07:44:43;;;;;;;7.50;3.08;;;;;;;;;;4974958;28;20031;-59
2021/07/01 07:47:10;;;;;;;11.00;3.05;;;;;;;;;;4975436;28;20090;-66
2021/07/01 07:49:36;;;;;;;10.70;3.15;;;;;;;;;;4975215;28;20038;-59
2021/07/01 07:52:03;;;;;;;9.52;3.38;;;;;;;;;;4975345;28;20101;-64
2021/07/01 07:54:31;;;;;;;11.63;2.92;;;;;;;;;;4975230;28;20070;-64
2021/07/01 07:56:58;;;;;;;10.27;3.22;;;;;;;;;;4975466;28;20049;-63
2021/07/01 07:59:28;;;;;;;13.10;3.60;;;;;;;;;;4974856;28;20062;-65
2021/07/01 08:01:54;;;;;;;12.27;3.25;;;;;;;;;;4974854;28;20426;-68
2021/07/01 08:04:23;;;;;;;13.50;3.45;;;;;;;;;;4974905;28;20060;-67
2021/07/01 08:06:51;;;;;;;11.82;2.78;;;;;;;;;;4974900;28;20023;-59
2021/07/01 08:09:18;;;;;;;10.07;2.88;;;;;;;;;;4974930;28;20042;-63
2021/07/01 08:11:45;;;;;;;10.85;3.30;;;;;;;;;;4975128;28;20022;-58
2021/07/01 08:14:13;;;;;;;14.05;3.55;;;;;;;;;;4974833;28;20034;-65
2021/07/01 08:16:39;;;;;;;9.48;2.70;;;;;;;;;;4975150;28;20019;-61
2021/07/01 08:19:05;;;;;;;9.00;3.20;;;;;;;;;;4974898;28;20056;-63
2021/07/01 08:21:31;;;;;;;13.00;2.85;;;;;;;;;;4975080;28;20023;-58
2021/07/01 08:23:58;;;;;;;10.63;2.53;;;;;;;;;;4974935;28;20034;-64
2021/07/01 08:26:25;;;;;;;10.63;3.13;;;;;;;;;;4974670;28;20027;-60
2021/07/01 08:28:52;;;;;;;7.90;2.80;;;;;;;;;;4957200;28;20105;-59
2021/07/01 08:31:19;;;;;;;8.10;3.00;;;;;;;;;;4974126;28;20502;-58
2021/07/01 08:33:47;;;;;;;11.95;2.80;;;;;;;;;;4955578;28;20039;-58
2021/07/01 08:36:19;;;;;;;12.38;3.10;;;;;;;;;;4955296;29;20019;-60
2021/07/01 08:38:45;;;;;;;12.23;3.13;;;;;;;;;;4938071;29;20027;-66
2021/07/01 08:41:11;;;;;;;12.85;3.78;;;;;;;;;;4955168;29;20498;-62
2021/07/01 08:43:41;;;;;;;11.88;3.33;;;;;;;;;;4954929;29;20399;-61
2021/07/01 08:46:11;;;;;;;8.52;2.90;;;;;;;;;;4957487;28;20031;-61
2021/07/01 08:48:57;;;;;;;8.73;3.20;;;;;;;;;;4959776;28;20045;-65
2021/07/01 08:51:28;;;;;;;8.65;3.25;;;;;;;;;;4953929;28;20506;-57
2021/07/01 08:54:13;;;;;;;9.90;2.97;;;;;;;;;;4958429;28;20483;-56
2021/07/01 08:56:39;;;;;;;8.35;2.97;;;;;;;;;;4954729;29;20087;-55
2021/07/01 08:59:06;;;;;;;10.65;3.95;;;;;;;;;;4954206;29;20027;-56
2021/07/01 09:01:32;;;;;;;7.93;3.22;;;;;;;;;;4963154;28;20081;-58
2021/07/01 09:03:59;;;;;;;8.70;3.28;;;;;;;;;;4971218;28;20031;-57
2021/07/01 09:06:26;;;;;;;9.60;3.40;;;;;;;;;;4969109;28;20054;-58
2021/07/01 09:08:53;;;;;;;11.00;3.53;;;;;;;;;;4958783;28;20041;-59
2021/07/01 09:11:23;;;;;;;8.65;3.72;;;;;;;;;;4971758;28;20549;-62
2021/07/01 09:13:50;;;;;;;10.98;3.75;;;;;;;;;;4973506;28;20117;-60
2021/07/01 09:16:17;;;;;;;11.50;3.67;;;;;;;;;;4967346;28;20031;-58
2021/07/01 09:18:47;;;;;;;11.40;3.80;;;;;;;;;;4953806;29;20038;-59
2021/07/01 09:21:14;;;;;;;8.85;3.53;;;;;;;;;;4954097;29;20503;-63
2021/07/01 09:23:48;;;;;;;13.25;4.22;;;;;;;;;;4956144;28;20043;-58
2021/07/01 09:26:21;;;;;;;10.38;3.50;;;;;;;;;;4954623;29;20407;-57
2021/07/01 09:28:48;;;;;;;14.55;3.70;;;;;;;;;;4953759;29;20050;-59
2021/07/01 09:31:16;;;;;;;12.10;4.30;;;;;;;;;;4950554;28;20043;-59
2021/07/01 09:33:43;;;;;;;12.23;4.05;;;;;;;;;;4949102;29;20475;-58
2021/07/01 09:36:10;;;;;;;11.13;3.63;;;;;;;;;;4934334;28;20377;-59
2021/07/01 09:38:36;;;;;;;11.65;3.65;;;;;;;;;;4951891;28;20022;-57
2021/07/01 09:41:02;;;;;;;8.98;3.72;;;;;;;;;;4959297;28;20110;-57
2021/07/01 09:43:28;;;;;;;8.07;3.47;;;;;;;;;;4969799;28;20106;-58
2021/07/01 09:45:56;;;;;;;8.55;3.63;;;;;;;;;;4971330;28;20098;-58
2021/07/01 09:48:26;;;;;;;14.57;3.90;;;;;;;;;;4953028;29;20071;-62
2021/07/01 09:50:53;;;;;;;17.33;3.45;;;;;;;;;;4953741;29;20047;-65
2021/07/01 09:53:30;;;;;;;17.38;4.10;;;;;;;;;;4953189;29;20054;-64
2021/07/01 09:55:57;;;;;;;12.95;3.70;;;;;;;;;;4953500;29;20085;-61
2021/07/01 09:58:28;;;;;;;10.55;3.92;;;;;;;;;;4953678;28;20103;-61
2021/07/01 10:00:54;;;;;;;12.32;4.18;;;;;;;;;;4954662;28;20031;-60
2021/07/01 10:03:20;;;;;;;8.93;4.03;;;;;;;;;;4950040;29;20038;-63
2021/07/01 10:05:46;;;;;;;13.55;4.05;;;;;;;;;;4951573;28;20090;-62
2021/07/01 10:08:12;;;;;;;11.48;3.60;;;;;;;;;;4952501;29;20093;-60
2021/07/01 10:10:48;;;;;;;9.82;4.25;;;;;;;;;;4952769;29;20069;-61
2021/07/01 10:13:15;;;;;;;13.00;3.83;;;;;;;;;;4953291;29;20031;-60
2021/07/01 10:15:42;;;;;;;9.13;3.88;;;;;;;;;;4953459;29;20479;-60
2021/07/01 10:18:09;;;;;;;10.20;3.65;;;;;;;;;;4953190;28;20118;-61
2021/07/01 10:20:37;;;;;;;10.65;3.90;;;;;;;;;;4954523;28;20038;-60
2021/07/01 10:23:03;;;;;;;12.60;3.75;;;;;;;;;;4968268;28;20031;-61
2021/07/01 10:25:30;;;;;;;9.00;3.50;;;;;;;;;;4961612;28;20438;-62
2021/07/01 10:27:58;;;;;;;13.07;3.28;;;;;;;;;;4969613;28;20025;-60
2021/07/01 10:30:24;;;;;;;13.40;3.00;;;;;;;;;;4954936;28;20059;-62
2021/07/01 10:32:54;;;;;;;11.38;3.50;;;;;;;;;;4953085;29;20038;-60
2021/07/01 10:35:30;;;;;;;9.00;3.38;;;;;;;;;;4952994;29;20059;-63
2021/07/01 10:37:57;;;;;;;9.15;3.30;;;;;;;;;;4952857;29;20038;-60
2021/07/01 10:40:23;;;;;;;10.90;3.20;;;;;;;;;;4957895;28;20069;-61
2021/07/01 10:42:50;;;;;;;11.55;3.60;;;;;;;;;;4954965;28;20111;-65
2021/07/01 10:45:17;;;;;;;12.35;3.28;;;;;;;;;;4952626;29;20031;-60
2021/07/01 10:47:43;;;;;;;8.30;3.65;;;;;;;;;;4952890;29;20118;-60
2021/07/01 10:50:30;;;;;;;14.93;3.42;;;;;;;;;;4952858;29;20046;-63
2021/07/01 10:52:56;;;;;;;7.72;3.03;;;;;;;;;;4952963;29;20023;-61
2021/07/01 10:55:23;;;;;;;10.82;2.60;;;;;;;;;;4952948;29;20100;-63
2021/07/01 10:57:53;;;;;;;11.18;2.95;;;;;;;;;;4952382;28;20020;-62
2021/07/01 11:00:36;;;;;;;8.77;3.00;;;;;;;;;;4962089;28;20039;-63
2021/07/01 11:03:03;;;;;;;8.25;2.67;;;;;;;;;;4967306;28;20494;-64
2021/07/01 11:05:35;;;;;;;7.97;3.00;;;;;;;;;;4972088;28;20034;-67
2021/07/01 11:08:01;;;;;;;10.93;2.85;;;;;;;;;;4971726;28;20033;-61
2021/07/01 11:10:38;;;;;;;10.88;2.80;;;;;;;;;;4971905;28;20165;-62
2021/07/01 11:13:08;;;;;;;9.35;2.72;;;;;;;;;;4971853;28;20023;-62
2021/07/01 11:15:34;;;;;;;9.75;2.70;;;;;;;;;;4971584;28;20549;-67
2021/07/01 11:18:10;;;;;;;11.85;2.95;;;;;;;;;;4975888;28;20042;-72
2021/07/01 11:20:37;;;;;;;8.43;2.75;;;;;;;;;;4969422;28;20144;-74
2021/07/01 11:23:03;;;;;;;4.95;2.45;;;;;;;;;;4965398;28;20165;-68
2021/07/01 11:25:34;;;;;;;6.50;2.25;;;;;;;;;;4967405;28;20054;-67
2021/07/01 11:28:15;;;;;;;11.63;2.67;;;;;;;;;;4962334;28;20472;-64
2021/07/01 11:30:54;;;;;;;9.85;2.95;;;;;;;;;;4935824;29;20058;-64
2021/07/01 11:33:21;;;;;;;10.80;2.67;;;;;;;;;;4937410;29;20031;-64
2021/07/01 11:35:47;;;;;;;6.80;1.98;;;;;;;;;;4936104;29;20526;-64
2021/07/01 11:38:30;;;;;;;4.03;2.17;;;;;;;;;;4937200;29;20059;-67
2021/07/01 11:40:58;;;;;;;9.35;2.00;;;;;;;;;;4937050;29;20035;-64
2021/07/01 11:43:24;;;;;;;7.25;2.10;;;;;;;;;;4935648;29;20031;-63
2021/07/01 11:45:51;;;;;;;4.05;2.03;;;;;;;;;;4936869;29;20154;-63
2021/07/01 11:48:20;;;;;;;10.40;2.10;;;;;;;;;;4936854;29;20067;-64
2021/07/01 11:50:48;;;;;;;5.45;1.90;;;;;;;;;;4935972;29;20038;-65
2021/07/01 11:53:14;;;;;;;14.45;2.63;;;;;;;;;;4936759;29;20060;-64
2021/07/01 11:55:41;;;;;;;7.20;1.80;;;;;;;;;;4936976;29;20031;-65
2021/07/01 11:58:09;;;;;;;9.85;2.15;;;;;;;;;;4936581;29;20035;-64
2021/07/01 12:00:35;;;;;;;8.30;1.92;;;;;;;;;;4936508;29;20027;-64
2021/07/01 12:03:02;;;;;;;4.60;1.75;;;;;;;;;;4936655;29;20035;-69
2021/07/01 12:05:28;;;;;;;8.18;1.88;;;;;;;;;;4936906;29;20384;-70
2021/07/01 12:07:54;;;;;;;5.28;1.95;;;;;;;;;;4936576;29;20126;-63
2021/07/01 12:10:20;;;;;;;8.00;2.20;;;;;;;;;;4936347;29;20051;-64
2021/07/01 12:12:46;;;;;;;4.95;1.73;;;;;;;;;;4936430;29;20024;-64
2021/07/01 12:15:14;;;;;;;6.60;1.85;;;;;;;;;;4936212;29;20086;-64
2021/07/01 12:18:05;;;;;;;4.43;1.58;;;;;;;;;;4936271;29;20028;-64
2021/07/01 12:20:34;;;;;;;3.85;1.40;;;;;;;;;;4936465;29;20035;-64
2021/07/01 12:23:01;;;;;;;9.48;1.90;;;;;;;;;;4936511;29;20480;-64
2021/07/01 12:25:27;;;;;;;6.22;1.85;;;;;;;;;;4936074;29;20040;-65
2021/07/01 12:28:08;;;;;;;4.88;1.70;;;;;;;;;;4935244;29;20028;-66
2021/07/01 12:30:56;;;;;;;4.03;1.58;;;;;;;;;;4935361;29;20055;-64
2021/07/01 12:33:53;;;;;;;4.35;1.83;;;;;;;;;;4935457;29;20055;-64
2021/07/01 12:36:25;;;;;;;5.65;1.60;;;;;;;;;;4895376;29;20045;-64
2021/07/01 12:39:13;;;;;;;7.03;1.88;;;;;;;;;;4895731;29;20041;-68
2021/07/01 12:41:39;;;;;;;6.50;1.40;;;;;;;;;;4895687;29;20116;-69
2021/07/01 12:44:08;;;;;;;7.80;1.55;;;;;;;;;;4895346;29;20115;-65
2021/07/01 12:51:55;;;;;;;6.53;1.35;;;;;;;;;;4895076;29;20025;-64
2021/07/01 12:54:21;;;;;;;;;;;;;;;;;;4895956;29;20474;-71
2021/07/01 12:56:49;;;;;;;4.35;1.40;;;;;;;;;;4893944;29;19952;-64
2021/07/01 12:59:15;;;;;;;5.15;1.27;;;;;;;;;;4895572;29;20036;-63
2021/07/01 13:01:41;;;;;;;5.43;1.38;;;;;;;;;;4895154;29;20115;-63
2021/07/01 13:04:07;;;;;;;6.22;1.10;;;;;;;;;;4895070;29;20097;-64
2021/07/01 13:06:34;;;;;;;3.60;1.10;;;;;;;;;;4895000;29;20236;-67
2021/07/01 13:09:00;;;;;;;3.22;1.20;;;;;;;;;;4895120;29;20540;-62
2021/07/01 13:11:26;;;;;;;9.18;1.50;;;;;;;;;;4895108;29;20032;-62
2021/07/01 13:13:59;;;;;;;6.78;1.15;;;;;;;;;;4934991;29;20048;-61
2021/07/01 13:16:25;;;;;;;6.72;1.27;;;;;;;;;;4935153;29;20487;-61
2021/07/01 13:18:51;;;;;;;4.05;1.00;;;;;;;;;;4935450;29;20088;-61
2021/07/01 13:21:17;;;;;;;7.03;1.50;;;;;;;;;;4935479;29;20459;-62
2021/07/01 13:23:43;;;;;;;8.13;1.52;;;;;;;;;;4935225;28;20082;-66
2021/07/01 13:26:10;;;;;;;4.13;1.40;;;;;;;;;;4969525;28;20019;-62
2021/07/01 13:28:36;;;;;;;3.05;1.17;;;;;;;;;;4955284;28;20076;-62
2021/07/01 13:31:03;;;;;;;2.90;1.20;;;;;;;;;;4957739;28;20051;-61
2021/07/01 13:33:29;;;;;;;4.65;1.00;;;;;;;;;;4954017;28;20027;-62
2021/07/01 13:35:55;;;;;;;4.40;1.23;;;;;;;;;;4953039;29;20067;-62
2021/07/01 13:38:23;;;;;;;2.78;1.00;;;;;;;;;;4958546;28;20029;-61
2021/07/01 13:40:51;;;;;;;5.80;1.15;;;;;;;;;;4941844;28;20395;-61
2021/07/01 13:43:18;;;;;;;2.30;1.00;;;;;;;;;;4963755;28;20054;-65
2021/07/01 13:45:45;;;;;;;6.32;1.45;;;;;;;;;;4972827;28;20460;-64
2021/07/01 13:48:17;;;;;;;6.45;1.40;;;;;;;;;;4971496;28;20027;-64
2021/07/01 13:50:44;;;;;;;6.13;1.08;;;;;;;;;;4953279;28;20494;-63
2021/07/01 13:53:18;;;;;;;4.78;1.40;;;;;;;;;;4973195;28;20105;-70
2021/07/01 13:55:48;;;;;;;4.35;1.33;;;;;;;;;;4972512;28;20051;-65
2021/07/01 13:58:35;;;;;;;7.50;1.67;;;;;;;;;;4954104;28;20039;-63
2021/07/01 14:01:03;;;;;;;3.70;1.27;;;;;;;;;;4950588;28;20577;-63
2021/07/01 14:03:30;;;;;;;6.28;1.10;;;;;;;;;;4935316;29;20098;-63
2021/07/01 14:06:09;;;;;;;4.45;0.90;;;;;;;;;;4949436;28;20126;-64
2021/07/01 14:08:35;;;;;;;4.07;1.00;;;;;;;;;;4950237;29;20555;-63
2021/07/01 14:11:01;;;;;;;3.38;1.38;;;;;;;;;;4953386;29;20066;-66
2021/07/01 14:13:28;;;;;;;5.35;1.58;;;;;;;;;;4935875;29;20031;-64
2021/07/01 14:15:54;;;;;;;3.83;1.08;;;;;;;;;;4936347;29;20028;-64
2021/07/01 14:18:20;;;;;;;4.95;1.30;;;;;;;;;;4953333;29;20391;-66
2021/07/01 14:20:47;;;;;;;3.38;1.00;;;;;;;;;;4954286;28;20046;-67
2021/07/01 14:23:20;;;;;;;4.55;1.15;;;;;;;;;;4961566;28;20039;-73
2021/07/01 14:25:46;;;;;;;2.75;1.20;;;;;;;;;;4960925;28;20032;-73
2021/07/01 14:28:13;;;;;;;5.10;1.10;;;;;;;;;;4964124;28;20023;-66
2021/07/01 14:30:47;;;;;;;4.75;1.20;;;;;;;;;;4958436;28;20042;-68
2021/07/01 14:33:32;;;;;;;4.32;1.00;;;;;;;;;;4959646;28;20043;-78
2021/07/01 14:36:03;;;;;;;4.82;1.13;;;;;;;;;;4955845;28;20082;-71
